Time;durP1;ratioP1;P1;durP2;ratioP2;P2;SDS_P1;SDS_P2;PMS_P1;PMS_P2;Temp;Humidity;BMP_temperature;BMP_pressure;BME280_temperature;BME280_humidity;BME280_pressure;Samples;Min_cycle;Max_cycle;Signal;HPM_P1;HPM_P2
2021/11/29 06:20:06;;;;;;;;;;;;;;;;;;5021462;23;19933;-68
2021/11/29 06:22:32;;;;;;;;;;;;;;;;;;4917682;29;20400;-67
2021/11/29 06:24:58;;;;;;;;;;;;;;;;;;4899448;29;19914;-72
2021/11/29 06:27:24;;;;;;;;;;;;;;;;;;4906644;29;19927;-70
2021/11/29 06:29:50;;;;;;;;;;;;;;;;;;4916779;29;20282;-70
2021/11/29 06:32:16;;;;;;;;;;;;;;;;;;4917365;29;19915;-68
2021/11/29 06:34:42;;;;;;;;;;;;;;;;;;4915767;29;19919;-70
2021/11/29 06:37:07;;;;;;;;;;;;;;;;;;4915094;29;19911;-68
2021/11/29 06:39:33;;;;;;;;;;;;;;;;;;4913520;29;19938;-67
2021/11/29 06:42:01;;;;;;;;;;;;;;;;;;4913291;29;19911;-69
2021/11/29 06:44:27;;;;;;;;;;;;;;;;;;4896803;29;19915;-66
2021/11/29 06:46:53;;;;;;;;;;;;;;;;;;4915586;29;19934;-70
2021/11/29 06:49:18;;;;;;;;;;;;;;;;;;4915129;29;19915;-68
2021/11/29 06:51:44;;;;;;;;;;;;;;;;;;4915559;29;19915;-67
2021/11/29 06:54:10;;;;;;;;;;;;;;;;;;4916347;29;20434;-67
2021/11/29 06:56:36;;;;;;;;;;;;;;;;;;4899362;29;20846;-70
2021/11/29 06:59:02;;;;;;;;;;;;;;;;;;4915436;29;19922;-69
2021/11/29 07:01:28;;;;;;;;;;;;;;;;;;4916138;29;19930;-68
2021/11/29 07:03:54;;;;;;;;;;;;;;;;;;4916145;29;20355;-67
2021/11/29 07:06:20;;;;;;;;;;;;;;;;;;4915114;29;19919;-68
2021/11/29 07:08:46;;;;;;;;;;;;;;;;;;4917217;29;19923;-71
2021/11/29 07:11:12;;;;;;;;;;;;;;;;;;4916104;29;20029;-67
2021/11/29 07:13:38;;;;;;;;;;;;;;;;;;4916022;29;19993;-67
2021/11/29 07:16:04;;;;;;;;;;;;;;;;;;4898798;29;19950;-68
2021/11/29 07:18:30;;;;;;;;;;;;;;;;;;4910912;29;19923;-67
2021/11/29 07:20:56;;;;;;;;;;;;;;;;;;4896163;29;20146;-69
2021/11/29 07:23:22;;;;;;;;;;;;;;;;;;4898149;29;20026;-68
2021/11/29 07:25:48;;;;;;;;;;;;;;;;;;4896888;29;20010;-69
2021/11/29 07:28:13;;;;;;;;;;;;;;;;;;4878668;29;19927;-65
2021/11/29 07:30:39;;;;;;;;;;;;;;;;;;4896893;29;19911;-67
2021/11/29 07:33:05;;;;;;;;;;;;;;;;;;4895918;29;19915;-67
2021/11/29 07:35:31;;;;;;;;;;;;;;;;;;4896652;29;19953;-67
2021/11/29 07:37:57;;;;;;;;;;;;;;;;;;4896044;29;19908;-70
2021/11/29 07:40:29;;;;;;;;;;;;;;;;;;4895264;29;19984;-67
2021/11/29 07:42:55;;;;;;;;;;;;;;;;;;4895845;29;19916;-67
2021/11/29 07:45:21;;;;;;;;;;;;;;;;;;4896881;29;19927;-72
2021/11/29 07:47:47;;;;;;;;;;;;;;;;;;4896413;29;19924;-68
2021/11/29 07:50:14;;;;;;;;;;;;;;;;;;4895895;29;20348;-68
2021/11/29 07:52:40;;;;;;;;;;;;;;;;;;4893754;29;19917;-70
2021/11/29 07:55:11;;;;;;;;;;;;;;;;;;4896472;29;20774;-71
2021/11/29 07:57:37;;;;;;;;;;;;;;;;;;4895852;29;19918;-65
2021/11/29 08:00:05;;;;;;;;;;;;;;;;;;4879772;29;20328;-64
2021/11/29 08:02:31;;;;;;;;;;;;;;;;;;4896956;29;20632;-69
2021/11/29 08:04:56;;;;;;;;;;;;;;;;;;4895713;29;19920;-67
2021/11/29 08:07:22;;;;;;;;;;;;;;;;;;4895114;29;19922;-70
2021/11/29 08:09:48;;;;;;;;;;;;;;;;;;4895637;29;19935;-69
2021/11/29 08:12:14;;;;;;;;;;;;;;;;;;4896055;29;19911;-70
2021/11/29 08:14:40;;;;;;;;;;;;;;;;;;4895516;29;19911;-71
2021/11/29 08:17:06;;;;;;;;;;;;;;;;;;4895673;29;19919;-69
2021/11/29 08:19:32;;;;;;;;;;;;;;;;;;4895519;29;19935;-68
2021/11/29 08:21:58;;;;;;;;;;;;;;;;;;4893625;29;20253;-68
2021/11/29 08:24:24;;;;;;;;;;;;;;;;;;4896493;29;19954;-68
2021/11/29 08:26:50;;;;;;;;;;;;;;;;;;4896927;29;19918;-70
2021/11/29 08:29:16;;;;;;;;;;;;;;;;;;4896832;29;19912;-69
2021/11/29 08:31:42;;;;;;;;;;;;;;;;;;4896895;29;20006;-70
2021/11/29 08:34:08;;;;;;;;;;;;;;;;;;4896529;29;20321;-69
2021/11/29 08:36:34;;;;;;;;;;;;;;;;;;4895634;29;19918;-71
2021/11/29 08:38:59;;;;;;;;;;;;;;;;;;4895483;29;20415;-70
2021/11/29 08:41:27;;;;;;;;;;;;;;;;;;4877980;29;19974;-69
2021/11/29 08:43:52;;;;;;;;;;;;;;;;;;4894457;29;19930;-71
2021/11/29 08:46:18;;;;;;;;;;;;;;;;;;4877998;29;19912;-70
2021/11/29 08:48:44;;;;;;;;;;;;;;;;;;4894480;29;19938;-72
2021/11/29 08:51:10;;;;;;;;;;;;;;;;;;4894999;29;19982;-69
2021/11/29 08:53:38;;;;;;;;;;;;;;;;;;4894971;29;20470;-70
2021/11/29 08:56:04;;;;;;;;;;;;;;;;;;4895186;29;19907;-73
2021/11/29 08:58:30;;;;;;;;;;;;;;;;;;4894413;29;19908;-72
2021/11/29 09:00:56;;;;;;;;;;;;;;;;;;4895011;29;19911;-72
2021/11/29 09:03:22;;;;;;;;;;;;;;;;;;4894638;29;20311;-73
2021/11/29 09:05:48;;;;;;;;;;;;;;;;;;4895040;29;19950;-71
2021/11/29 09:08:13;;;;;;;;;;;;;;;;;;4895575;29;19967;-70
2021/11/29 09:10:39;;;;;;;;;;;;;;;;;;4896412;29;19918;-70
2021/11/29 09:13:05;;;;;;;;;;;;;;;;;;4896030;29;19911;-70
2021/11/29 09:15:31;;;;;;;;;;;;;;;;;;4895935;29;19919;-67
2021/11/29 09:17:57;;;;;;;;;;;;;;;;;;4878689;29;19915;-70
2021/11/29 09:20:23;;;;;;;;;;;;;;;;;;4878937;29;19948;-70
2021/11/29 09:22:49;;;;;;;;;;;;;;;;;;4895757;29;19958;-71
2021/11/29 09:25:15;;;;;;;;;;;;;;;;;;4895877;29;19907;-70
2021/11/29 09:27:43;;;;;;;;;;;;;;;;;;4896006;29;19923;-71
2021/11/29 09:30:09;;;;;;;;;;;;;;;;;;4896148;29;19975;-71
2021/11/29 09:32:38;;;;;;;;;;;;;;;;;;4896280;29;20388;-71
2021/11/29 09:35:04;;;;;;;;;;;;;;;;;;4895900;29;19915;-71
2021/11/29 09:37:30;;;;;;;;;;;;;;;;;;4895843;29;19907;-72
2021/11/29 09:39:56;;;;;;;;;;;;;;;;;;4896145;29;19930;-73
2021/11/29 09:42:21;;;;;;;;;;;;;;;;;;4896071;29;20544;-71
2021/11/29 09:44:53;;;;;;;;;;;;;;;;;;4895799;29;20352;-73
2021/11/29 09:47:19;;;;;;;;;;;;;;;;;;4895854;29;20066;-73
2021/11/29 09:49:45;;;;;;;;;;;;;;;;;;4895691;29;20372;-72
2021/11/29 09:52:11;;;;;;;;;;;;;;;;;;4895942;29;19914;-72
2021/11/29 09:54:37;;;;;;;;;;;;;;;;;;4895534;29;19911;-73
2021/11/29 09:57:02;;;;;;;;;;;;;;;;;;4898385;29;19907;-72
2021/11/29 09:59:28;;;;;;;;;;;;;;;;;;4899511;29;19911;-70
2021/11/29 10:01:54;;;;;;;;;;;;;;;;;;4899167;29;19967;-74
2021/11/29 10:04:20;;;;;;;;;;;;;;;;;;4899488;29;19998;-70
2021/11/29 10:06:48;;;;;;;;;;;;;;;;;;4899747;29;20012;-71
2021/11/29 10:09:14;;;;;;;;;;;;;;;;;;4882471;29;20317;-71
2021/11/29 10:11:40;;;;;;;;;;;;;;;;;;4899236;29;19915;-71
2021/11/29 10:14:08;;;;;;;;;;;;;;;;;;4899218;29;19956;-70
2021/11/29 10:16:34;;;;;;;;;;;;;;;;;;4899136;29;19912;-70
2021/11/29 10:18:59;;;;;;;;;;;;;;;;;;4897594;29;19928;-71
2021/11/29 10:21:25;;;;;;;;;;;;;;;;;;4898097;29;19998;-71
2021/11/29 10:23:51;;;;;;;;;;;;;;;;;;4898137;29;20335;-71
2021/11/29 10:26:17;;;;;;;;;;;;;;;;;;4897710;29;19998;-72
2021/11/29 10:28:43;;;;;;;;;;;;;;;;;;4897787;29;19962;-72
2021/11/29 10:31:09;;;;;;;;;;;;;;;;;;4898299;29;19915;-74
2021/11/29 10:33:35;;;;;;;;;;;;;;;;;;4897604;29;20315;-72
2021/11/29 10:36:01;;;;;;;;;;;;;;;;;;4897590;29;19908;-70
2021/11/29 10:38:27;;;;;;;;;;;;;;;;;;4899280;29;19911;-73
2021/11/29 10:40:53;;;;;;;;;;;;;;;;;;4895155;29;20282;-70
2021/11/29 10:43:19;;;;;;;;;;;;;;;;;;4897315;29;19911;-72
2021/11/29 10:45:44;;;;;;;;;;;;;;;;;;4895908;29;19939;-70
2021/11/29 10:48:10;;;;;;;;;;;;;;;;;;4895821;29;19976;-70
2021/11/29 10:50:36;;;;;;;;;;;;;;;;;;4896294;29;19919;-71
2021/11/29 10:53:02;;;;;;;;;;;;;;;;;;4880278;29;19966;-72
2021/11/29 10:55:28;;;;;;;;;;;;;;;;;;4897459;29;19952;-72
2021/11/29 10:57:54;;;;;;;;;;;;;;;;;;4898400;29;19965;-73
2021/11/29 11:00:20;;;;;;;;;;;;;;;;;;4897433;29;20448;-70
2021/11/29 11:02:46;;;;;;;;;;;;;;;;;;4897309;29;19986;-67
2021/11/29 11:05:12;;;;;;;;;;;;;;;;;;4878751;29;19915;-70
2021/11/29 11:07:39;;;;;;;;;;;;;;;;;;4897065;29;19915;-69
2021/11/29 11:10:06;;;;;;;;;;;;;;;;;;4896981;29;19912;-72
2021/11/29 11:12:33;;;;;;;;;;;;;;;;;;4897129;29;19911;-71
2021/11/29 11:15:01;;;;;;;;;;;;;;;;;;4898734;29;19914;-71
2021/11/29 11:17:27;;;;;;;;;;;;;;;;;;4900316;29;19926;-69
2021/11/29 11:19:53;;;;;;;;;;;;;;;;;;4916166;29;19923;-71
2021/11/29 11:22:19;;;;;;;;;;;;;;;;;;4916957;29;19910;-73
2021/11/29 11:24:45;;;;;;;;;;;;;;;;;;4908496;29;21196;-70
2021/11/29 11:27:11;;;;;;;;;;;;;;;;;;4896237;29;20018;-70
2021/11/29 11:29:36;;;;;;;;;;;;;;;;;;4896357;29;20348;-70
2021/11/29 11:32:02;;;;;;;;;;;;;;;;;;4895955;29;19911;-73
2021/11/29 11:34:28;;;;;;;;;;;;;;;;;;4892849;29;19918;-69
2021/11/29 11:36:54;;;;;;;;;;;;;;;;;;4894810;29;19915;-71
2021/11/29 11:39:20;;;;;;;;;;;;;;;;;;4896239;29;19915;-73
2021/11/29 11:41:47;;;;;;;;;;;;;;;;;;4895062;29;20402;-72
2021/11/29 11:44:13;;;;;;;;;;;;;;;;;;4895389;29;19911;-72
2021/11/29 11:46:40;;;;;;;;;;;;;;;;;;4896281;29;20286;-74
2021/11/29 11:49:06;;;;;;;;;;;;;;;;;;4896118;29;20820;-72
2021/11/29 11:51:32;;;;;;;;;;;;;;;;;;4895742;29;19957;-65
2021/11/29 11:53:58;;;;;;;;;;;;;;;;;;4895931;29;19959;-70
2021/11/29 11:56:25;;;;;;;;;;;;;;;;;;4896469;29;19983;-70
2021/11/29 11:58:52;;;;;;;;;;;;;;;;;;4895976;29;19919;-73
2021/11/29 12:01:18;;;;;;;;;;;;;;;;;;4891917;29;19915;-72
2021/11/29 12:03:45;;;;;;;;;;;;;;;;;;4895658;29;20248;-72
2021/11/29 12:06:18;;;;;;;;;;;;;;;;;;4893932;29;19915;-71
2021/11/29 12:08:47;;;;;;;;;;;;;;;;;;4894796;29;19931;-71
2021/11/29 12:11:13;;;;;;;;;;;;;;;;;;4892663;29;19922;-71
2021/11/29 12:13:39;;;;;;;;;;;;;;;;;;4896521;29;19908;-71
2021/11/29 12:16:05;;;;;;;;;;;;;;;;;;4887951;29;19914;-68
2021/11/29 12:18:31;;;;;;;;;;;;;;;;;;4877302;29;19912;-69
2021/11/29 12:20:56;;;;;;;;;;;;;;;;;;4863493;29;20284;-69
2021/11/29 12:23:22;;;;;;;;;;;;;;;;;;4892420;29;19990;-68
2021/11/29 12:25:48;;;;;;;;;;;;;;;;;;4895163;29;20002;-70
2021/11/29 12:28:14;;;;;;;;;;;;;;;;;;4895425;29;20014;-70
2021/11/29 12:30:42;;;;;;;;;;;;;;;;;;4894584;29;20026;-71
2021/11/29 12:33:10;;;;;;;;;;;;;;;;;;4893696;29;19911;-71
2021/11/29 12:35:36;;;;;;;;;;;;;;;;;;4893148;29;19927;-71
2021/11/29 12:38:02;;;;;;;;;;;;;;;;;;4894241;29;20348;-71
2021/11/29 12:40:28;;;;;;;;;;;;;;;;;;4892037;29;20379;-70
2021/11/29 12:42:54;;;;;;;;;;;;;;;;;;4894216;29;19972;-71
2021/11/29 12:45:21;;;;;;;;;;;;;;;;;;4893835;29;19915;-72
2021/11/29 12:47:46;;;;;;;;;;;;;;;;;;4892479;29;19919;-73
2021/11/29 12:50:12;;;;;;;;;;;;;;;;;;4890727;29;19922;-71
2021/11/29 12:52:38;;;;;;;;;;;;;;;;;;4892053;29;19908;-69
2021/11/29 12:55:04;;;;;;;;;;;;;;;;;;4895818;29;20350;-69
2021/11/29 12:57:31;;;;;;;;;;;;;;;;;;4895744;29;19997;-70
2021/11/29 12:59:57;;;;;;;;;;;;;;;;;;4895429;29;20006;-69
2021/11/29 13:02:23;;;;;;;;;;;;;;;;;;4895280;29;20002;-73
2021/11/29 13:04:48;;;;;;;;;;;;;;;;;;4895479;29;19922;-70
2021/11/29 13:07:14;;;;;;;;;;;;;;;;;;4894683;29;19915;-71
2021/11/29 13:09:40;;;;;;;;;;;;;;;;;;4894150;29;19939;-72
2021/11/29 13:12:06;;;;;;;;;;;;;;;;;;4894815;29;19915;-69
2021/11/29 13:14:32;;;;;;;;;;;;;;;;;;4894505;29;20584;-69
2021/11/29 13:17:00;;;;;;;;;;;;;;;;;;4894759;29;19911;-69
2021/11/29 13:19:26;;;;;;;;;;;;;;;;;;4894886;29;19923;-69
2021/11/29 13:21:52;;;;;;;;;;;;;;;;;;4895534;29;19974;-68
2021/11/29 13:24:18;;;;;;;;;;;;;;;;;;4896267;29;20279;-69
2021/11/29 13:26:44;;;;;;;;;;;;;;;;;;4896361;29;19914;-68
2021/11/29 13:29:10;;;;;;;;;;;;;;;;;;4895954;29;20010;-70
2021/11/29 13:31:36;;;;;;;;;;;;;;;;;;4898606;29;20448;-68
2021/11/29 13:34:02;;;;;;;;;;;;;;;;;;4900430;29;19946;-68
2021/11/29 13:36:28;;;;;;;;;;;;;;;;;;4894994;29;20302;-68
2021/11/29 13:38:57;;;;;;;;;;;;;;;;;;4895405;29;20387;-69
2021/11/29 13:41:25;;;;;;;;;;;;;;;;;;4897668;29;20371;-69
2021/11/29 13:43:51;;;;;;;;;;;;;;;;;;4899322;29;20426;-69
2021/11/29 13:46:17;;;;;;;;;;;;;;;;;;4899654;29;19914;-67
2021/11/29 13:48:44;;;;;;;;;;;;;;;;;;4898534;29;19926;-71
2021/11/29 13:51:10;;;;;;;;;;;;;;;;;;4898654;29;19923;-69
2021/11/29 13:53:39;;;;;;;;;;;;;;;;;;4878403;29;19986;-68
2021/11/29 13:56:05;;;;;;;;;;;;;;;;;;4899134;29;19911;-70
2021/11/29 13:58:32;;;;;;;;;;;;;;;;;;4899436;29;19939;-69
2021/11/29 14:00:59;;;;;;;;;;;;;;;;;;4899349;29;20413;-71
2021/11/29 14:03:26;;;;;;;;;;;;;;;;;;4899626;29;19907;-68
2021/11/29 14:05:52;;;;;;;;;;;;;;;;;;4898648;29;19950;-69
2021/11/29 14:08:18;;;;;;;;;;;;;;;;;;4898821;29;19962;-70
2021/11/29 14:10:47;;;;;;;;;;;;;;;;;;4898943;29;19980;-69
2021/11/29 14:13:14;;;;;;;;;;;;;;;;;;4899052;29;20029;-69
2021/11/29 14:15:39;;;;;;;;;;;;;;;;;;4898313;29;19958;-69
2021/11/29 14:18:05;;;;;;;;;;;;;;;;;;4893235;29;19911;-68
2021/11/29 14:20:31;;;;;;;;;;;;;;;;;;4897163;29;19927;-68
2021/11/29 14:22:58;;;;;;;;;;;;;;;;;;4897442;29;20332;-68
2021/11/29 14:25:24;;;;;;;;;;;;;;;;;;4897400;29;19947;-69
2021/11/29 14:27:50;;;;;;;;;;;;;;;;;;4897623;29;20452;-68
2021/11/29 14:30:16;;;;;;;;;;;;;;;;;;4898194;29;20513;-68
2021/11/29 14:32:42;;;;;;;;;;;;;;;;;;4917110;29;19947;-70
2021/11/29 14:35:10;;;;;;;;;;;;;;;;;;4917478;29;19911;-69
2021/11/29 14:37:37;;;;;;;;;;;;;;;;;;4917320;29;20260;-70
2021/11/29 14:40:03;;;;;;;;;;;;;;;;;;4917420;29;19907;-69
2021/11/29 14:42:30;;;;;;;;;;;;;;;;;;4916899;29;19907;-69
2021/11/29 14:44:56;;;;;;;;;;;;;;;;;;4917942;29;20279;-70
2021/11/29 14:47:22;;;;;;;;;;;;;;;;;;4917353;29;19915;-70
2021/11/29 14:49:48;;;;;;;;;;;;;;;;;;4917488;29;19922;-68
2021/11/29 14:52:14;;;;;;;;;;;;;;;;;;4897456;29;20356;-69
2021/11/29 14:54:40;;;;;;;;;;;;;;;;;;4898354;29;19962;-69
2021/11/29 14:57:06;;;;;;;;;;;;;;;;;;4897594;29;19966;-70
2021/11/29 14:59:32;;;;;;;;;;;;;;;;;;4897272;29;19912;-68
2021/11/29 15:01:58;;;;;;;;;;;;;;;;;;4897375;29;20011;-70
2021/11/29 15:04:24;;;;;;;;;;;;;;;;;;4896488;29;20520;-69
2021/11/29 15:06:50;;;;;;;;;;;;;;;;;;4896846;29;20295;-71
2021/11/29 15:09:15;;;;;;;;;;;;;;;;;;4898028;29;19926;-68
2021/11/29 15:11:46;;;;;;;;;;;;;;;;;;4898250;29;19966;-69
2021/11/29 15:14:12;;;;;;;;;;;;;;;;;;4897120;29;19915;-69
2021/11/29 15:16:40;;;;;;;;;;;;;;;;;;4896683;29;19955;-72
2021/11/29 15:19:06;;;;;;;;;;;;;;;;;;4891798;29;19915;-69
2021/11/29 15:21:32;;;;;;;;;;;;;;;;;;4897126;29;20055;-69
2021/11/29 15:23:58;;;;;;;;;;;;;;;;;;4896910;29;20002;-71
2021/11/29 15:26:23;;;;;;;;;;;;;;;;;;4897264;29;19911;-69
2021/11/29 15:28:49;;;;;;;;;;;;;;;;;;4897706;29;19915;-68
2021/11/29 15:31:15;;;;;;;;;;;;;;;;;;4897007;29;19911;-68
2021/11/29 15:33:41;;;;;;;;;;;;;;;;;;4896918;29;20319;-68
2021/11/29 15:36:07;;;;;;;;;;;;;;;;;;4897418;29;19912;-66
2021/11/29 15:38:33;;;;;;;;;;;;;;;;;;4896716;29;19921;-66
2021/11/29 15:40:59;;;;;;;;;;;;;;;;;;4897525;29;19907;-67
2021/11/29 15:43:25;;;;;;;;;;;;;;;;;;4897047;29;19907;-65
2021/11/29 15:45:51;;;;;;;;;;;;;;;;;;4897212;29;19907;-65
2021/11/29 15:48:23;;;;;;;;;;;;;;;;;;4896439;29;19967;-67
2021/11/29 15:50:49;;;;;;;;;;;;;;;;;;4896029;29;20018;-67
2021/11/29 15:53:15;;;;;;;;;;;;;;;;;;4894540;29;20009;-65
2021/11/29 15:55:41;;;;;;;;;;;;;;;;;;4895291;29;19919;-69
2021/11/29 15:58:06;;;;;;;;;;;;;;;;;;4895291;29;19919;-70
2021/11/29 16:00:32;;;;;;;;;;;;;;;;;;4894825;29;20356;-69
2021/11/29 16:02:58;;;;;;;;;;;;;;;;;;4896225;29;19914;-69
2021/11/29 16:05:24;;;;;;;;;;;;;;;;;;4896438;29;19914;-69
2021/11/29 16:07:50;;;;;;;;;;;;;;;;;;4895991;29;20347;-69
2021/11/29 16:10:16;;;;;;;;;;;;;;;;;;4896129;29;20415;-69
2021/11/29 16:12:42;;;;;;;;;;;;;;;;;;4895987;29;20371;-69
2021/11/29 16:15:08;;;;;;;;;;;;;;;;;;4896108;29;19907;-69
2021/11/29 16:17:34;;;;;;;;;;;;;;;;;;4895622;29;19907;-69
2021/11/29 16:20:00;;;;;;;;;;;;;;;;;;4895850;29;20380;-69
2021/11/29 16:22:26;;;;;;;;;;;;;;;;;;4895626;29;19989;-69
2021/11/29 16:24:52;;;;;;;;;;;;;;;;;;4895310;29;19926;-70
2021/11/29 16:27:18;;;;;;;;;;;;;;;;;;4896935;29;20708;-69
2021/11/29 16:29:44;;;;;;;;;;;;;;;;;;4896210;29;19926;-68
2021/11/29 16:32:10;;;;;;;;;;;;;;;;;;4895100;29;19912;-69
2021/11/29 16:34:36;;;;;;;;;;;;;;;;;;4892221;29;19915;-68
2021/11/29 16:37:03;;;;;;;;;;;;;;;;;;4895747;29;20443;-66
2021/11/29 16:39:29;;;;;;;;;;;;;;;;;;4896793;29;20374;-65
2021/11/29 16:41:54;;;;;;;;;;;;;;;;;;4895341;29;19915;-65
2021/11/29 16:44:20;;;;;;;;;;;;;;;;;;4895485;29;19911;-65
2021/11/29 16:46:46;;;;;;;;;;;;;;;;;;4895025;29;19911;-64
2021/11/29 16:49:12;;;;;;;;;;;;;;;;;;4895217;29;19929;-71
2021/11/29 16:51:38;;;;;;;;;;;;;;;;;;4895424;29;20292;-67
2021/11/29 16:54:04;;;;;;;;;;;;;;;;;;4895772;29;19926;-68
2021/11/29 16:56:30;;;;;;;;;;;;;;;;;;4895233;29;19907;-68
2021/11/29 16:58:58;;;;;;;;;;;;;;;;;;4894927;29;20006;-70
2021/11/29 17:01:24;;;;;;;;;;;;;;;;;;4894810;29;19915;-74
2021/11/29 17:03:50;;;;;;;;;;;;;;;;;;4894802;29;19911;-72
2021/11/29 17:06:17;;;;;;;;;;;;;;;;;;4894342;29;20423;-71
2021/11/29 17:08:43;;;;;;;;;;;;;;;;;;4895412;29;19979;-71
2021/11/29 17:11:08;;;;;;;;;;;;;;;;;;4895178;29;19947;-71
2021/11/29 17:13:34;;;;;;;;;;;;;;;;;;4894976;29;19911;-73
2021/11/29 17:16:00;;;;;;;;;;;;;;;;;;4894646;29;19956;-73
2021/11/29 17:18:26;;;;;;;;;;;;;;;;;;4895682;29;20022;-73
2021/11/29 17:20:52;;;;;;;;;;;;;;;;;;4895730;29;19991;-70
2021/11/29 17:23:18;;;;;;;;;;;;;;;;;;4895963;29;19939;-71
2021/11/29 17:25:44;;;;;;;;;;;;;;;;;;4895056;29;19931;-71
2021/11/29 17:28:10;;;;;;;;;;;;;;;;;;4894754;29;19923;-71
2021/11/29 17:30:36;;;;;;;;;;;;;;;;;;4894882;29;20312;-72
2021/11/29 17:33:02;;;;;;;;;;;;;;;;;;4894531;29;19944;-73
2021/11/29 17:35:29;;;;;;;;;;;;;;;;;;4894544;29;20271;-71
2021/11/29 17:37:55;;;;;;;;;;;;;;;;;;4894779;29;19911;-72
2021/11/29 17:40:22;;;;;;;;;;;;;;;;;;4895955;29;20424;-72
2021/11/29 17:42:48;;;;;;;;;;;;;;;;;;4894883;29;19912;-70
2021/11/29 17:45:14;;;;;;;;;;;;;;;;;;4878073;29;19963;-72
2021/11/29 17:47:40;;;;;;;;;;;;;;;;;;4894141;29;19915;-73
2021/11/29 17:50:06;;;;;;;;;;;;;;;;;;4894804;29;19929;-68
2021/11/29 17:52:32;;;;;;;;;;;;;;;;;;4894608;29;19955;-72
2021/11/29 17:54:58;;;;;;;;;;;;;;;;;;4894561;29;19911;-68
2021/11/29 17:57:24;;;;;;;;;;;;;;;;;;4894494;29;19919;-73
2021/11/29 17:59:50;;;;;;;;;;;;;;;;;;4895242;29;19931;-71
2021/11/29 18:02:18;;;;;;;;;;;;;;;;;;4895656;29;19912;-73
2021/11/29 18:04:43;;;;;;;;;;;;;;;;;;4895644;29;19961;-75
2021/11/29 18:07:14;;;;;;;;;;;;;;;;;;4895430;29;19951;-73
2021/11/29 18:12:36;;;;;;;;;;;;;;;;;;4894587;29;19911;-72
2021/11/29 18:15:02;;;;;;;;;;;;;;;;;;4893379;29;19915;-73
2021/11/29 18:17:28;;;;;;;;;;;;;;;;;;4895107;29;20319;-74
2021/11/29 18:19:54;;;;;;;;;;;;;;;;;;4897538;29;19952;-74
2021/11/29 18:22:20;;;;;;;;;;;;;;;;;;4897376;29;19911;-71
2021/11/29 18:24:46;;;;;;;;;;;;;;;;;;4896787;29;19918;-71
2021/11/29 18:27:12;;;;;;;;;;;;;;;;;;4898616;29;19907;-74
2021/11/29 18:29:38;;;;;;;;;;;;;;;;;;4898262;29;20329;-74
2021/11/29 18:32:05;;;;;;;;;;;;;;;;;;4895043;29;20372;-76
2021/11/29 18:34:31;;;;;;;;;;;;;;;;;;4897152;29;19967;-73
2021/11/29 18:36:57;;;;;;;;;;;;;;;;;;4898415;29;19916;-76
2021/11/29 18:39:23;;;;;;;;;;;;;;;;;;4906437;29;20331;-78
2021/11/29 18:41:49;;;;;;;;;;;;;;;;;;4904715;29;20018;-75
2021/11/29 18:44:15;;;;;;;;;;;;;;;;;;4907187;29;19959;-73
2021/11/29 18:46:41;;;;;;;;;;;;;;;;;;4906856;29;19915;-76
2021/11/29 18:49:11;;;;;;;;;;;;;;;;;;4910845;29;19981;-73
2021/11/29 18:51:37;;;;;;;;;;;;;;;;;;4891245;29;20360;-70
2021/11/29 18:54:03;;;;;;;;;;;;;;;;;;4881100;29;19908;-75
2021/11/29 18:56:29;;;;;;;;;;;;;;;;;;4898401;29;19908;-72
2021/11/29 18:58:55;;;;;;;;;;;;;;;;;;4898036;29;19915;-73
2021/11/29 19:01:20;;;;;;;;;;;;;;;;;;4897718;29;19912;-74
2021/11/29 19:03:46;;;;;;;;;;;;;;;;;;4881591;29;20070;-73
2021/11/29 19:06:12;;;;;;;;;;;;;;;;;;4894073;29;19931;-75
2021/11/29 19:08:38;;;;;;;;;;;;;;;;;;4896272;29;19946;-74
2021/11/29 19:11:06;;;;;;;;;;;;;;;;;;4895804;29;20473;-73
2021/11/29 19:13:32;;;;;;;;;;;;;;;;;;4895848;29;19977;-72
2021/11/29 19:15:58;;;;;;;;;;;;;;;;;;4897289;29;20462;-75
2021/11/29 19:18:23;;;;;;;;;;;;;;;;;;4897348;29;19907;-74
2021/11/29 19:20:49;;;;;;;;;;;;;;;;;;4897103;29;19923;-72
2021/11/29 19:23:15;;;;;;;;;;;;;;;;;;4899488;29;19911;-72
2021/11/29 19:25:41;;;;;;;;;;;;;;;;;;4905292;29;19914;-73
2021/11/29 19:28:13;;;;;;;;;;;;;;;;;;4907103;29;19922;-75
2021/11/29 19:30:39;;;;;;;;;;;;;;;;;;4904678;29;19911;-74
2021/11/29 19:33:05;;;;;;;;;;;;;;;;;;4906788;29;19918;-72
2021/11/29 19:35:30;;;;;;;;;;;;;;;;;;4916096;29;19918;-70
2021/11/29 19:37:56;;;;;;;;;;;;;;;;;;4915502;29;20387;-69
2021/11/29 19:40:34;;;;;;;;;;;;;;;;;;4915780;29;19911;-73
2021/11/29 19:43:00;;;;;;;;;;;;;;;;;;4915943;29;19911;-81
2021/11/29 19:45:27;;;;;;;;;;;;;;;;;;4916160;29;19914;-72
2021/11/29 19:47:53;;;;;;;;;;;;;;;;;;4915737;29;20027;-70
2021/11/29 19:50:19;;;;;;;;;;;;;;;;;;4915998;29;19947;-75
2021/11/29 19:52:45;;;;;;;;;;;;;;;;;;4914950;29;19911;-70
2021/11/29 19:55:11;;;;;;;;;;;;;;;;;;4916025;29;20273;-73
2021/11/29 19:57:36;;;;;;;;;;;;;;;;;;4915712;29;19917;-70
2021/11/29 20:00:04;;;;;;;;;;;;;;;;;;4915538;29;20271;-72
2021/11/29 20:02:30;;;;;;;;;;;;;;;;;;4915506;29;19918;-77
2021/11/29 20:04:56;;;;;;;;;;;;;;;;;;4915856;29;19911;-68
2021/11/29 20:07:22;;;;;;;;;;;;;;;;;;4915277;29;19998;-81
2021/11/29 20:09:48;;;;;;;;;;;;;;;;;;4915576;29;20025;-71
2021/11/29 20:12:14;;;;;;;;;;;;;;;;;;4915244;29;20551;-73
2021/11/29 20:14:40;;;;;;;;;;;;;;;;;;4915172;29;19911;-74
2021/11/29 20:17:07;;;;;;;;;;;;;;;;;;4915562;29;19911;-72
2021/11/29 20:19:39;;;;;;;;;;;;;;;;;;4914790;29;19919;-76
2021/11/29 20:22:05;;;;;;;;;;;;;;;;;;4914502;29;19922;-71
2021/11/29 20:24:31;;;;;;;;;;;;;;;;;;4915091;29;19911;-76
2021/11/29 20:26:58;;;;;;;;;;;;;;;;;;4915732;29;19907;-76
2021/11/29 20:29:24;;;;;;;;;;;;;;;;;;4915060;29;19934;-76
2021/11/29 20:31:49;;;;;;;;;;;;;;;;;;4897579;29;20267;-76
2021/11/29 20:34:16;;;;;;;;;;;;;;;;;;4915139;29;19907;-74
2021/11/29 20:36:44;;;;;;;;;;;;;;;;;;4914928;29;19911;-74
2021/11/29 20:39:16;;;;;;;;;;;;;;;;;;4908192;29;19915;-70
2021/11/29 20:41:42;;;;;;;;;;;;;;;;;;4894654;29;19911;-79
2021/11/29 20:44:08;;;;;;;;;;;;;;;;;;4894506;29;19911;-76
2021/11/29 20:46:34;;;;;;;;;;;;;;;;;;4895515;29;19911;-74
2021/11/29 20:49:00;;;;;;;;;;;;;;;;;;4896080;29;19919;-74
2021/11/29 20:51:25;;;;;;;;;;;;;;;;;;4895572;29;20367;-73
2021/11/29 20:53:55;;;;;;;;;;;;;;;;;;4895532;29;19914;-74
2021/11/29 20:56:20;;;;;;;;;;;;;;;;;;4896355;29;20621;-73
2021/11/29 20:58:47;;;;;;;;;;;;;;;;;;4895541;29;19907;-73
2021/11/29 21:01:13;;;;;;;;;;;;;;;;;;4895464;29;19915;-75
2021/11/29 21:03:39;;;;;;;;;;;;;;;;;;4895413;29;20063;-74
2021/11/29 21:06:05;;;;;;;;;;;;;;;;;;4895959;29;19907;-73
2021/11/29 21:08:31;;;;;;;;;;;;;;;;;;4894651;29;19920;-73
2021/11/29 21:10:57;;;;;;;;;;;;;;;;;;4894671;29;19923;-73
2021/11/29 21:13:22;;;;;;;;;;;;;;;;;;4895771;29;19942;-73
2021/11/29 21:15:48;;;;;;;;;;;;;;;;;;4895616;29;19911;-73
2021/11/29 21:18:14;;;;;;;;;;;;;;;;;;4895261;29;19915;-73
2021/11/29 21:20:40;;;;;;;;;;;;;;;;;;4858082;29;19932;-73
2021/11/29 21:23:06;;;;;;;;;;;;;;;;;;4856601;29;19995;-71
2021/11/29 21:25:32;;;;;;;;;;;;;;;;;;4857659;29;20796;-77
2021/11/29 21:27:58;;;;;;;;;;;;;;;;;;4858109;29;21174;-74
2021/11/29 21:30:24;;;;;;;;;;;;;;;;;;4855232;29;19916;-74
2021/11/29 21:32:50;;;;;;;;;;;;;;;;;;4857917;29;19908;-71
2021/11/29 21:35:16;;;;;;;;;;;;;;;;;;4858290;29;19958;-74
2021/11/29 21:37:42;;;;;;;;;;;;;;;;;;4856580;29;19915;-73
2021/11/29 21:40:08;;;;;;;;;;;;;;;;;;4858148;29;19912;-73
2021/11/29 21:42:34;;;;;;;;;;;;;;;;;;4858360;29;19951;-73
2021/11/29 21:45:00;;;;;;;;;;;;;;;;;;4858143;29;20253;-74
2021/11/29 21:47:26;;;;;;;;;;;;;;;;;;4858310;29;19919;-73
2021/11/29 21:49:51;;;;;;;;;;;;;;;;;;4859387;29;20014;-73
2021/11/29 21:52:17;;;;;;;;;;;;;;;;;;4878273;29;20010;-73
2021/11/29 21:54:43;;;;;;;;;;;;;;;;;;4880916;29;19951;-74
2021/11/29 21:57:13;;;;;;;;;;;;;;;;;;4880691;29;19944;-72
2021/11/29 21:59:39;;;;;;;;;;;;;;;;;;4880271;29;19919;-72
2021/11/29 22:02:06;;;;;;;;;;;;;;;;;;4880594;29;19911;-75
2021/11/29 22:04:32;;;;;;;;;;;;;;;;;;4880523;29;20364;-71
2021/11/29 22:06:58;;;;;;;;;;;;;;;;;;4880031;29;19918;-71
2021/11/29 22:09:24;;;;;;;;;;;;;;;;;;4879652;29;19920;-74
2021/11/29 22:11:50;;;;;;;;;;;;;;;;;;4880313;29;19912;-72
2021/11/29 22:14:15;;;;;;;;;;;;;;;;;;4880220;29;19966;-72
2021/11/29 22:16:41;;;;;;;;;;;;;;;;;;4880920;29;19919;-72
2021/11/29 22:19:07;;;;;;;;;;;;;;;;;;4884520;29;19923;-77
2021/11/29 22:21:33;;;;;;;;;;;;;;;;;;4898865;29;19975;-71
2021/11/29 22:23:59;;;;;;;;;;;;;;;;;;4899106;29;20312;-73
2021/11/29 22:26:25;;;;;;;;;;;;;;;;;;4898487;29;19911;-72
2021/11/29 22:28:51;;;;;;;;;;;;;;;;;;4898354;29;20354;-74
2021/11/29 22:31:17;;;;;;;;;;;;;;;;;;4898915;29;19954;-75
2021/11/29 22:33:43;;;;;;;;;;;;;;;;;;4896644;29;19903;-77
2021/11/29 22:36:09;;;;;;;;;;;;;;;;;;4895008;29;19907;-74
2021/11/29 22:38:41;;;;;;;;;;;;;;;;;;4897442;29;19903;-74
2021/11/29 22:41:07;;;;;;;;;;;;;;;;;;4898083;29;19911;-74
2021/11/29 22:43:32;;;;;;;;;;;;;;;;;;4899139;29;20359;-71
2021/11/29 22:45:58;;;;;;;;;;;;;;;;;;4881640;29;19935;-72
2021/11/29 22:48:24;;;;;;;;;;;;;;;;;;4898631;29;19924;-71
2021/11/29 22:50:53;;;;;;;;;;;;;;;;;;4899552;29;19919;-74
2021/11/29 22:53:19;;;;;;;;;;;;;;;;;;4899037;29;19915;-73
2021/11/29 22:55:44;;;;;;;;;;;;;;;;;;4898647;29;19912;-71
2021/11/29 22:58:10;;;;;;;;;;;;;;;;;;4898957;29;19915;-73
2021/11/29 23:00:36;;;;;;;;;;;;;;;;;;4898376;29;19908;-75